createdAt,value
2023-01-22T00:00:36.368Z,101169.56
2023-01-22T00:01:38.719Z,101165.97
2023-01-22T00:02:40.976Z,101165.97
2023-01-22T00:03:46.575Z,101165.97
2023-01-22T00:04:56.584Z,101157.81
2023-01-22T00:06:02.045Z,101158.84
2023-01-22T00:07:04.308Z,101156.16
2023-01-22T00:08:06.548Z,101160.72
2023-01-22T00:09:08.693Z,101165.97
2023-01-22T00:10:12.023Z,101158.84
2023-01-22T00:11:15.598Z,101168.69
2023-01-22T00:12:17.757Z,101165.13
2023-01-22T00:13:21.516Z,101157.81
2023-01-22T00:14:23.781Z,101163.25
2023-01-22T00:15:26.028Z,101159.69
2023-01-22T00:16:28.217Z,101156.97
2023-01-22T00:17:33.010Z,101163.25
2023-01-22T00:18:35.277Z,101157.81
2023-01-22T00:19:40.497Z,101156.97
2023-01-22T00:20:50.133Z,101162.41
2023-01-22T00:21:52.383Z,101159.69
2023-01-22T00:22:55.609Z,101157.81
2023-01-22T00:24:00.046Z,101161.59
2023-01-22T00:25:02.284Z,101162.41
2023-01-22T00:26:07.177Z,101165.97
2023-01-22T00:27:09.521Z,101165.81
2023-01-22T00:28:12.621Z,101165.97
2023-01-22T00:29:15.440Z,101160.53
2023-01-22T00:30:18.234Z,101160.53
2023-01-22T00:31:23.942Z,101164.13
2023-01-22T00:32:26.485Z,101165.97
2023-01-22T00:33:29.461Z,101162.41
2023-01-22T00:34:31.649Z,101163.25
2023-01-22T00:35:36.224Z,101163.94
2023-01-22T00:36:41.164Z,101168.69
2023-01-22T00:37:43.392Z,101163.25
2023-01-22T00:38:46.739Z,101160.53
2023-01-22T00:39:48.929Z,101152.38
2023-01-22T00:40:51.105Z,101157.81
2023-01-22T00:41:53.322Z,101160.38
2023-01-22T00:42:57.541Z,101161.41
2023-01-22T00:43:59.704Z,101160.53
2023-01-22T00:45:01.862Z,101156.97
2023-01-22T00:46:05.366Z,101155.97
2023-01-22T00:47:07.578Z,101161.41
2023-01-22T00:48:12.393Z,101164.13
2023-01-22T00:49:14.549Z,101161.59
2023-01-22T00:50:19.925Z,101171.41
2023-01-22T00:51:24.472Z,101169.56
2023-01-22T00:52:26.641Z,101169.75
2023-01-22T00:53:31.136Z,101174.13
2023-01-22T00:54:33.355Z,101173.13
2023-01-22T00:55:35.677Z,101177.72
2023-01-22T00:56:37.866Z,101173.28
2023-01-22T00:57:40.142Z,101171.59
2023-01-22T00:58:46.057Z,101183.16
2023-01-22T00:59:49.029Z,101174.13
2023-01-22T01:00:51.944Z,101178.72
2023-01-22T01:01:54.318Z,101178.91
2023-01-22T01:03:15.273Z,101185.00
2023-01-22T01:04:18.254Z,101187.06
2023-01-22T01:05:20.432Z,101189.78
2023-01-22T01:06:22.697Z,101193.16
2023-01-22T01:07:24.879Z,101190.63
2023-01-22T01:08:29.086Z,101187.72
2023-01-22T01:09:38.567Z,101188.78
2023-01-22T01:10:40.797Z,101187.91
2023-01-22T01:11:43.211Z,101187.06
2023-01-22T01:12:48.131Z,101190.63
2023-01-22T01:13:51.263Z,101192.69
2023-01-22T01:14:55.948Z,101188.91
2023-01-22T01:16:05.112Z,101194.34
2023-01-22T01:17:07.380Z,101195.41
2023-01-22T01:18:13.245Z,101192.69
2023-01-22T01:19:20.650Z,101185.38
2023-01-22T01:20:26.089Z,101188.09
2023-01-22T01:21:29.388Z,101186.19
2023-01-22T01:22:31.689Z,101189.97
2023-01-22T01:23:35.452Z,101189.97
2023-01-22T01:24:37.719Z,101188.91
2023-01-22T01:25:43.470Z,101197.94
2023-01-22T01:26:45.638Z,101188.91
2023-01-22T01:27:47.867Z,101188.91
2023-01-22T01:28:54.184Z,101189.97
2023-01-22T01:29:56.397Z,101182.66
2023-01-22T01:31:04.086Z,101188.91
2023-01-22T01:32:07.174Z,101191.63
2023-01-22T01:33:09.344Z,101195.22
2023-01-22T01:34:15.056Z,101192.69
2023-01-22T01:35:17.407Z,101184.34
2023-01-22T01:36:40.497Z,101187.06
2023-01-22T01:37:43.953Z,101189.97
2023-01-22T01:38:46.832Z,101190.81
2023-01-22T01:39:52.535Z,101193.53
2023-01-22T01:40:54.923Z,101188.91
2023-01-22T01:41:57.103Z,101186.19
2023-01-22T01:42:59.681Z,101185.38
2023-01-22T01:44:27.503Z,101185.19
2023-01-22T01:45:31.682Z,101179.94
2023-01-22T01:46:44.746Z,101178.03
2023-01-22T01:48:24.023Z,101173.47
2023-01-22T01:49:32.117Z,101176.19
2023-01-22T01:50:35.084Z,101176.19
2023-01-22T01:51:37.435Z,101177.03
2023-01-22T01:52:39.858Z,101171.78
2023-01-22T01:53:47.923Z,101173.47
2023-01-22T01:54:54.915Z,101179.75
2023-01-22T01:55:58.899Z,101176.19
2023-01-22T01:57:13.709Z,101182.47
2023-01-22T01:58:21.807Z,101177.22
2023-01-22T01:59:24.072Z,101177.91
2023-01-22T02:00:32.420Z,101176.19
2023-01-22T02:01:35.820Z,101181.63
2023-01-22T02:02:38.449Z,101170.56
2023-01-22T02:03:41.689Z,101176.00
2023-01-22T02:04:43.899Z,101177.91
2023-01-22T02:05:46.152Z,101177.03
2023-01-22T02:06:48.407Z,101184.34
2023-01-22T02:07:50.667Z,101187.91
2023-01-22T02:08:55.194Z,101195.03
2023-01-22T02:09:57.379Z,101190.63
2023-01-22T02:10:59.622Z,101188.78
2023-01-22T02:12:03.035Z,101188.78
2023-01-22T02:13:19.519Z,101186.88
2023-01-22T02:14:32.769Z,101194.03
2023-01-22T02:15:36.971Z,101195.03
2023-01-22T02:16:39.642Z,101195.03
2023-01-22T02:17:41.967Z,101201.31
2023-01-22T02:18:44.153Z,101201.16
2023-01-22T02:19:47.278Z,101197.59
2023-01-22T02:21:07.137Z,101203.03
2023-01-22T02:22:29.679Z,101203.19
2023-01-22T02:23:32.481Z,101203.19
2023-01-22T02:24:34.643Z,101197.75
2023-01-22T02:25:37.497Z,101200.47
2023-01-22T02:26:40.930Z,101202.19
2023-01-22T02:27:43.806Z,101209.47
2023-01-22T02:28:46.487Z,101203.19
2023-01-22T02:29:51.951Z,101212.19
2023-01-22T02:30:54.142Z,101206.75
2023-01-22T02:31:56.817Z,101213.06
2023-01-22T02:32:59.231Z,101205.09
2023-01-22T02:34:02.119Z,101213.06
2023-01-22T02:35:06.409Z,101213.06
2023-01-22T02:36:08.845Z,101212.19
2023-01-22T02:37:11.763Z,101210.34
2023-01-22T02:38:14.330Z,101217.63
2023-01-22T02:39:24.063Z,101210.34
2023-01-22T02:40:29.378Z,101209.31
2023-01-22T02:41:32.713Z,101213.91
2023-01-22T02:42:35.492Z,101211.00
2023-01-22T02:43:37.769Z,101210.34
2023-01-22T02:44:40.072Z,101210.34
2023-01-22T02:45:42.428Z,101212.03
2023-01-22T02:46:44.655Z,101209.31
2023-01-22T02:47:47.532Z,101207.44
2023-01-22T02:48:49.719Z,101212.03
2023-01-22T02:49:52.120Z,101210.16
2023-01-22T02:50:54.361Z,101207.44
2023-01-22T02:51:56.663Z,101210.16
2023-01-22T02:52:59.875Z,101214.78
2023-01-22T02:54:02.204Z,101209.31
2023-01-22T02:55:04.965Z,101208.28
2023-01-22T02:56:09.139Z,101204.72
2023-01-22T02:57:12.930Z,101210.16
2023-01-22T02:58:17.289Z,101204.72
2023-01-22T02:59:20.219Z,101207.44
2023-01-22T03:00:22.922Z,101213.72
2023-01-22T03:01:25.927Z,101211.00
2023-01-22T03:02:29.774Z,101210.00
2023-01-22T03:03:32.271Z,101205.56
2023-01-22T03:04:34.523Z,101220.03
2023-01-22T03:05:37.849Z,101221.88
2023-01-22T03:06:44.405Z,101218.16
2023-01-22T03:07:46.673Z,101212.69
2023-01-22T03:08:53.576Z,101210.00
2023-01-22T03:09:55.782Z,101219.84
2023-01-22T03:10:58.932Z,101215.44
2023-01-22T03:12:02.656Z,101217.31
2023-01-22T03:13:27.266Z,101212.69
2023-01-22T03:14:48.667Z,101219.00
2023-01-22T03:16:10.462Z,101219.00
2023-01-22T03:17:31.243Z,101210.00
2023-01-22T03:18:53.622Z,101213.56
2023-01-22T03:20:14.384Z,101212.69
2023-01-22T03:21:17.053Z,101208.13
2023-01-22T03:22:19.848Z,101210.00
2023-01-22T03:23:22.034Z,101211.00
2023-01-22T03:24:24.491Z,101217.31
2023-01-22T03:25:26.945Z,101216.44
2023-01-22T03:26:31.691Z,101221.03
2023-01-22T03:27:34.863Z,101220.03
2023-01-22T03:28:37.442Z,101216.44
2023-01-22T03:29:42.739Z,101224.59
2023-01-22T03:30:45.970Z,101219.16
2023-01-22T03:31:48.884Z,101222.56
2023-01-22T03:32:51.117Z,101224.44
2023-01-22T03:33:58.055Z,101226.47
2023-01-22T03:35:01.955Z,101228.19
2023-01-22T03:36:17.550Z,101227.31
2023-01-22T03:37:24.277Z,101222.75
2023-01-22T03:38:30.031Z,101234.28
2023-01-22T03:39:32.775Z,101235.31
2023-01-22T03:40:35.069Z,101238.03
2023-01-22T03:41:38.067Z,101237.00
2023-01-22T03:42:44.267Z,101229.03
2023-01-22T03:43:47.903Z,101228.00
2023-01-22T03:44:56.330Z,101233.44
2023-01-22T03:46:07.225Z,101237.00
2023-01-22T03:47:10.554Z,101233.44
2023-01-22T03:48:13.325Z,101236.16
2023-01-22T03:49:16.948Z,101230.72
2023-01-22T03:50:19.378Z,101231.56
2023-01-22T03:51:22.665Z,101232.44
2023-01-22T03:52:28.189Z,101235.16
2023-01-22T03:53:30.360Z,101239.72
2023-01-22T03:54:32.612Z,101242.44
2023-01-22T03:55:38.018Z,101237.00
2023-01-22T03:56:41.913Z,101237.88
2023-01-22T03:57:52.969Z,101236.16
2023-01-22T03:58:56.392Z,101243.31
2023-01-22T04:00:02.186Z,101239.72
2023-01-22T04:01:17.143Z,101247.72
2023-01-22T04:02:19.596Z,101246.88
2023-01-22T04:03:39.465Z,101246.03
2023-01-22T04:04:41.661Z,101239.56
2023-01-22T04:05:43.909Z,101249.59
2023-01-22T04:06:49.665Z,101246.88
2023-01-22T04:07:51.997Z,101243.31
2023-01-22T04:08:58.574Z,101238.69
2023-01-22T04:10:06.095Z,101248.75
2023-01-22T04:11:08.810Z,101244.16
2023-01-22T04:12:11.921Z,101246.88
2023-01-22T04:13:14.474Z,101245.00
2023-01-22T04:14:19.967Z,101241.44
2023-01-22T04:15:33.858Z,101245.00
2023-01-22T04:16:41.591Z,101241.44
2023-01-22T04:17:58.896Z,101248.75
2023-01-22T04:19:10.202Z,101259.63
2023-01-22T04:20:24.695Z,101250.44
2023-01-22T04:21:35.325Z,101254.00
2023-01-22T04:22:41.883Z,101255.88
2023-01-22T04:23:48.882Z,101255.03
2023-01-22T04:24:53.324Z,101255.88
2023-01-22T04:25:56.533Z,101262.34
2023-01-22T04:26:58.791Z,101256.03
2023-01-22T04:28:01.035Z,101258.75
2023-01-22T04:29:03.287Z,101261.47
2023-01-22T04:30:06.911Z,101264.19
2023-01-22T04:31:10.428Z,101256.03
2023-01-22T04:32:32.930Z,101257.91
2023-01-22T04:34:01.543Z,101254.38
2023-01-22T04:35:10.940Z,101257.09
2023-01-22T04:36:19.799Z,101257.91
2023-01-22T04:37:21.984Z,101260.63
2023-01-22T04:38:24.239Z,101260.63
2023-01-22T04:39:26.474Z,101260.63
2023-01-22T04:40:28.948Z,101262.34
2023-01-22T04:41:31.162Z,101269.63
2023-01-22T04:42:36.573Z,101260.63
2023-01-22T04:43:42.340Z,101263.19
2023-01-22T04:44:44.624Z,101259.63
2023-01-22T04:45:46.798Z,101265.06
2023-01-22T04:46:49.096Z,101265.25
2023-01-22T04:47:56.585Z,101267.97
2023-01-22T04:48:58.777Z,101257.09
2023-01-22T04:50:04.704Z,101261.47
2023-01-22T04:51:08.298Z,101258.75
2023-01-22T04:52:10.664Z,101261.47
2023-01-22T04:53:13.035Z,101256.03
2023-01-22T04:54:15.278Z,101261.47
2023-01-22T04:55:18.106Z,101265.06
2023-01-22T04:56:31.228Z,101265.06
2023-01-22T04:57:33.642Z,101264.19
2023-01-22T04:58:38.376Z,101265.06
2023-01-22T04:59:41.348Z,101269.63
2023-01-22T05:00:43.653Z,101272.22
2023-01-22T05:01:46.575Z,101275.06
2023-01-22T05:02:49.533Z,101274.22
2023-01-22T05:03:51.789Z,101272.34
2023-01-22T05:04:56.946Z,101273.22
2023-01-22T05:06:03.827Z,101274.06
2023-01-22T05:07:07.632Z,101276.78
2023-01-22T05:08:12.988Z,101274.06
2023-01-22T05:09:23.156Z,101277.78
2023-01-22T05:10:28.312Z,101280.50
2023-01-22T05:11:30.608Z,101276.78
2023-01-22T05:12:40.516Z,101283.91
2023-01-22T05:13:43.015Z,101276.78
2023-01-22T05:14:45.711Z,101278.66
2023-01-22T05:15:47.927Z,101279.50
2023-01-22T05:16:50.497Z,101279.50
2023-01-22T05:17:53.399Z,101280.38
2023-01-22T05:18:55.739Z,101285.81
2023-01-22T05:19:58.047Z,101283.91
2023-01-22T05:21:01.670Z,101283.91
2023-01-22T05:22:06.323Z,101284.75
2023-01-22T05:23:08.980Z,101284.94
2023-01-22T05:24:11.332Z,101290.19
2023-01-22T05:25:14.506Z,101285.81
2023-01-22T05:26:16.818Z,101279.50
2023-01-22T05:27:41.970Z,101281.38
2023-01-22T05:28:50.056Z,101288.53
2023-01-22T05:29:57.763Z,101293.78
2023-01-22T05:31:12.095Z,101283.91
2023-01-22T05:32:23.079Z,101287.47
2023-01-22T05:33:30.499Z,101285.63
2023-01-22T05:34:32.887Z,101287.31
2023-01-22T05:35:37.757Z,101291.91
2023-01-22T05:36:40.459Z,101291.06
2023-01-22T05:37:49.284Z,101291.91
2023-01-22T05:38:51.549Z,101289.19
2023-01-22T05:39:53.992Z,101291.72
2023-01-22T05:40:56.409Z,101294.44
2023-01-22T05:41:58.647Z,101295.50
2023-01-22T05:43:03.496Z,101291.72
2023-01-22T05:44:06.707Z,101290.88
2023-01-22T05:45:10.317Z,101295.31
2023-01-22T05:46:20.256Z,101293.59
2023-01-22T05:47:45.368Z,101299.03
2023-01-22T05:49:01.026Z,101299.03
2023-01-22T05:50:06.383Z,101299.03
2023-01-22T05:51:10.025Z,101293.59
2023-01-22T05:52:12.615Z,101299.88
2023-01-22T05:53:15.473Z,101296.31
2023-01-22T05:54:18.330Z,101298.22
2023-01-22T05:55:22.293Z,101303.66
2023-01-22T05:56:24.889Z,101300.94
2023-01-22T05:57:28.051Z,101303.66
2023-01-22T05:58:31.614Z,101302.59
2023-01-22T05:59:34.307Z,101305.50
2023-01-22T06:00:39.739Z,101305.31
2023-01-22T06:01:47.797Z,101308.03
2023-01-22T06:02:56.371Z,101308.03
2023-01-22T06:03:58.682Z,101302.78
2023-01-22T06:05:03.696Z,101306.19
2023-01-22T06:06:08.748Z,101307.19
2023-01-22T06:07:11.009Z,101317.06
2023-01-22T06:08:13.401Z,101311.81
2023-01-22T06:09:22.855Z,101310.75
2023-01-22T06:10:25.557Z,101309.09
2023-01-22T06:11:28.728Z,101306.38
2023-01-22T06:12:31.097Z,101308.03
2023-01-22T06:13:34.208Z,101316.19
2023-01-22T06:14:45.163Z,101308.91
2023-01-22T06:15:48.224Z,101315.19
2023-01-22T06:17:11.543Z,101308.91
2023-01-22T06:18:17.343Z,101317.06
2023-01-22T06:19:20.266Z,101316.19
2023-01-22T06:20:28.352Z,101323.34
2023-01-22T06:21:30.798Z,101324.22
2023-01-22T06:22:33.536Z,101321.50
2023-01-22T06:23:37.557Z,101328.78
2023-01-22T06:24:39.919Z,101319.78
2023-01-22T06:25:43.770Z,101325.22
2023-01-22T06:26:51.813Z,101331.69
2023-01-22T06:27:55.336Z,101322.50
2023-01-22T06:28:58.268Z,101323.34
2023-01-22T06:30:00.911Z,101326.06
2023-01-22T06:31:13.230Z,101335.09
2023-01-22T06:32:16.121Z,101331.50
2023-01-22T06:33:18.644Z,101328.78
2023-01-22T06:34:20.851Z,101332.38
2023-01-22T06:35:23.212Z,101334.22
2023-01-22T06:36:25.608Z,101342.38
2023-01-22T06:37:28.742Z,101336.09
2023-01-22T06:38:36.754Z,101340.53
2023-01-22T06:39:44.699Z,101344.25
2023-01-22T06:40:58.531Z,101347.81
2023-01-22T06:42:03.962Z,101351.41
2023-01-22T06:43:10.618Z,101358.69
2023-01-22T06:44:13.123Z,101355.97
2023-01-22T06:45:17.806Z,101353.25
2023-01-22T06:46:27.819Z,101359.56
2023-01-22T06:47:44.880Z,101365.00
2023-01-22T06:48:49.936Z,101361.41
2023-01-22T06:49:52.217Z,101360.59
2023-01-22T06:50:58.939Z,101372.31
2023-01-22T06:52:06.951Z,101371.47
2023-01-22T06:53:09.442Z,101369.56
2023-01-22T06:54:12.783Z,101365.00
2023-01-22T06:55:15.124Z,101358.69
2023-01-22T06:56:17.336Z,101357.88
2023-01-22T06:57:19.647Z,101373.16
2023-01-22T06:58:22.171Z,101361.41
2023-01-22T06:59:26.626Z,101375.03
2023-01-22T07:00:29.045Z,101374.19
2023-01-22T07:01:31.630Z,101375.88
2023-01-22T07:02:36.735Z,101377.91
2023-01-22T07:03:39.568Z,101378.59
2023-01-22T07:04:41.781Z,101377.75
2023-01-22T07:05:43.995Z,101379.63
2023-01-22T07:06:46.409Z,101377.75
2023-01-22T07:07:53.078Z,101384.03
2023-01-22T07:09:01.444Z,101385.91
2023-01-22T07:10:11.675Z,101384.03
2023-01-22T07:11:15.509Z,101387.78
2023-01-22T07:12:17.669Z,101390.50
2023-01-22T07:13:20.300Z,101388.63
2023-01-22T07:14:36.193Z,101394.06
2023-01-22T07:15:39.454Z,101382.34
2023-01-22T07:16:41.706Z,101393.88
2023-01-22T07:17:54.200Z,101391.34
2023-01-22T07:18:56.436Z,101391.34
2023-01-22T07:19:59.470Z,101397.66
2023-01-22T07:21:03.753Z,101396.78
2023-01-22T07:22:11.821Z,101392.22
2023-01-22T07:23:14.255Z,101395.06
2023-01-22T07:24:17.501Z,101400.38
2023-01-22T07:25:22.949Z,101394.94
2023-01-22T07:26:25.166Z,101394.94
2023-01-22T07:27:27.526Z,101395.75
2023-01-22T07:28:32.531Z,101388.63
2023-01-22T07:29:37.919Z,101387.59
2023-01-22T07:30:42.463Z,101399.31
2023-01-22T07:31:49.679Z,101393.88
2023-01-22T07:32:52.180Z,101391.34
2023-01-22T07:33:54.603Z,101399.31
2023-01-22T07:34:56.779Z,101392.22
2023-01-22T07:35:59.528Z,101399.31
2023-01-22T07:37:04.070Z,101397.66
2023-01-22T07:38:07.223Z,101400.19
2023-01-22T07:39:09.487Z,101401.03
2023-01-22T07:40:12.158Z,101403.75
2023-01-22T07:41:25.518Z,101408.34
2023-01-22T07:42:30.678Z,101403.75
2023-01-22T07:43:33.128Z,101409.19
2023-01-22T07:44:39.444Z,101407.34
2023-01-22T07:45:44.404Z,101410.91
2023-01-22T07:46:46.738Z,101408.34
2023-01-22T07:47:56.519Z,101413.78
2023-01-22T07:48:58.680Z,101415.63
2023-01-22T07:50:00.871Z,101408.53
2023-01-22T07:51:08.351Z,101417.53
2023-01-22T07:52:10.804Z,101416.50
2023-01-22T07:53:12.994Z,101419.41
2023-01-22T07:54:17.545Z,101424.84
2023-01-22T07:55:21.171Z,101422.13
2023-01-22T07:56:23.639Z,101433.00
2023-01-22T07:57:30.975Z,101430.28
2023-01-22T07:58:33.152Z,101431.28
2023-01-22T07:59:35.498Z,101426.69
2023-01-22T08:00:37.933Z,101435.88
2023-01-22T08:01:42.935Z,101432.13
2023-01-22T08:02:45.189Z,101426.88
2023-01-22T08:03:47.392Z,101430.44
2023-01-22T08:04:49.601Z,101438.59
2023-01-22T08:05:51.979Z,101436.72
2023-01-22T08:06:54.325Z,101434.84
2023-01-22T08:07:56.489Z,101439.44
2023-01-22T08:09:04.307Z,101436.91
2023-01-22T08:10:07.130Z,101433.00
2023-01-22T08:11:12.701Z,101431.28
2023-01-22T08:12:14.943Z,101443.00
2023-01-22T08:13:17.099Z,101445.72
2023-01-22T08:14:19.704Z,101446.75
2023-01-22T08:15:22.159Z,101445.72
2023-01-22T08:16:24.484Z,101435.88
2023-01-22T08:17:26.757Z,101437.56
2023-01-22T08:18:29.163Z,101441.16
2023-01-22T08:19:31.558Z,101436.56
2023-01-22T08:20:33.802Z,101438.44
2023-01-22T08:21:36.065Z,101442.00
2023-01-22T08:22:38.502Z,101448.28
2023-01-22T08:23:46.163Z,101445.56
2023-01-22T08:24:49.751Z,101440.13
2023-01-22T08:25:51.943Z,101442.00
2023-01-22T08:26:58.507Z,101454.59
2023-01-22T08:28:07.174Z,101451.88
2023-01-22T08:29:09.498Z,101449.16
2023-01-22T08:30:12.190Z,101459.00
2023-01-22T08:31:26.944Z,101457.13
2023-01-22T08:32:31.204Z,101463.41
2023-01-22T08:33:34.369Z,101454.41
2023-01-22T08:34:36.525Z,101463.41
2023-01-22T08:35:39.793Z,101461.72
2023-01-22T08:36:42.045Z,101463.41
2023-01-22T08:37:44.224Z,101467.84
2023-01-22T08:38:46.411Z,101462.41
2023-01-22T08:39:48.619Z,101475.81
2023-01-22T08:40:52.046Z,101467.66
2023-01-22T08:41:57.774Z,101473.09
2023-01-22T08:43:00.446Z,101471.25
2023-01-22T08:44:02.628Z,101479.41
2023-01-22T08:45:05.316Z,101475.69
2023-01-22T08:46:07.589Z,101479.25
2023-01-22T08:47:11.647Z,101483.16
2023-01-22T08:48:13.876Z,101476.88
2023-01-22T08:49:18.424Z,101485.88
2023-01-22T08:50:20.867Z,101493.19
2023-01-22T08:51:25.023Z,101480.44
2023-01-22T08:52:27.411Z,101481.25
2023-01-22T08:53:30.717Z,101491.31
2023-01-22T08:54:32.948Z,101482.13
2023-01-22T08:55:35.132Z,101479.59
2023-01-22T08:56:37.361Z,101483.16
2023-01-22T08:57:39.572Z,101486.88
2023-01-22T08:58:41.735Z,101487.75
2023-01-22T08:59:59.808Z,101479.59
2023-01-22T09:01:03.252Z,101477.88
2023-01-22T09:02:06.248Z,101477.00
2023-01-22T09:03:08.802Z,101477.88
2023-01-22T09:04:14.432Z,101478.91
2023-01-22T09:05:16.848Z,101481.59
2023-01-22T09:06:19.076Z,101478.06
2023-01-22T09:07:21.301Z,101481.59
2023-01-22T09:08:23.592Z,101484.50
2023-01-22T09:09:25.767Z,101486.22
2023-01-22T09:10:27.996Z,101487.88
2023-01-22T09:11:30.867Z,101483.31
2023-01-22T09:12:33.053Z,101492.50
2023-01-22T09:13:35.358Z,101493.34
2023-01-22T09:14:37.559Z,101488.94
2023-01-22T09:15:40.935Z,101494.19
2023-01-22T09:16:43.145Z,101484.50
2023-01-22T09:17:45.458Z,101490.78
2023-01-22T09:18:48.503Z,101490.78
2023-01-22T09:19:50.672Z,101487.06
2023-01-22T09:20:56.014Z,101487.22
2023-01-22T09:22:06.404Z,101493.34
2023-01-22T09:23:09.432Z,101489.78
2023-01-22T09:25:30.611Z,101490.59
2023-01-22T09:26:33.188Z,101494.38
2023-01-22T09:27:35.428Z,101504.22
2023-01-22T09:28:38.432Z,101496.91
2023-01-22T09:29:40.717Z,101500.47
2023-01-22T09:30:44.333Z,101501.50
2023-01-22T09:31:48.935Z,101500.47
2023-01-22T09:32:51.198Z,101502.19
2023-01-22T09:33:55.688Z,101494.03
2023-01-22T09:34:57.924Z,101491.31
2023-01-22T09:36:12.600Z,101496.41
2023-01-22T09:37:15.446Z,101494.56
2023-01-22T09:38:18.819Z,101497.28
2023-01-22T09:39:21.176Z,101488.25
2023-01-22T09:40:36.225Z,101493.50
2023-01-22T09:41:41.250Z,101502.53
2023-01-22T09:42:43.643Z,101498.81
2023-01-22T09:43:50.774Z,101491.47
2023-01-22T09:44:58.090Z,101492.31
2023-01-22T09:46:09.558Z,101494.19
2023-01-22T09:47:30.011Z,101492.31
2023-01-22T09:48:40.216Z,101502.19
2023-01-22T09:50:04.461Z,101489.59
2023-01-22T09:51:07.395Z,101485.22
2023-01-22T09:52:11.064Z,101486.22
2023-01-22T09:53:17.831Z,101484.34
2023-01-22T09:54:20.067Z,101481.44
2023-01-22T09:55:27.408Z,101482.47
2023-01-22T09:56:35.919Z,101481.63
2023-01-22T09:57:45.042Z,101480.78
2023-01-22T09:58:59.275Z,101489.78
2023-01-22T10:00:02.257Z,101490.66
2023-01-22T10:01:14.339Z,101484.34
2023-01-22T10:02:26.547Z,101486.88
2023-01-22T10:03:35.942Z,101491.47
2023-01-22T10:04:44.076Z,101496.94
2023-01-22T10:05:54.247Z,101502.19
2023-01-22T10:07:00.434Z,101502.19
2023-01-22T10:08:10.675Z,101499.66
2023-01-22T10:09:17.038Z,101503.19
2023-01-22T10:10:24.006Z,101509.50
2023-01-22T10:11:26.306Z,101505.78
2023-01-22T10:12:30.182Z,101514.78
2023-01-22T10:13:35.135Z,101512.06
2023-01-22T10:14:44.171Z,101512.06
2023-01-22T10:15:47.764Z,101511.22
2023-01-22T10:16:50.735Z,101523.78
2023-01-22T10:17:57.199Z,101517.50
2023-01-22T10:19:17.362Z,101523.78
2023-01-22T10:20:21.305Z,101526.50
2023-01-22T10:21:38.907Z,101521.06
2023-01-22T10:22:41.130Z,101514.59
2023-01-22T10:23:45.596Z,101517.31
2023-01-22T10:24:48.116Z,101519.22
2023-01-22T10:25:59.394Z,101515.63
2023-01-22T10:27:12.154Z,101526.38
2023-01-22T10:28:15.886Z,101524.66
2023-01-22T10:29:26.084Z,101534.34
2023-01-22T10:30:30.276Z,101529.09
2023-01-22T10:31:47.953Z,101529.75
2023-01-22T10:33:02.166Z,101528.03
2023-01-22T10:34:13.087Z,101533.47
2023-01-22T10:35:19.876Z,101536.91
2023-01-22T10:36:22.154Z,101533.47
2023-01-22T10:37:24.447Z,101533.47
2023-01-22T10:38:30.090Z,101537.06
2023-01-22T10:39:43.825Z,101536.91
2023-01-22T10:40:46.095Z,101536.91
2023-01-22T10:41:49.321Z,101535.19
2023-01-22T10:43:19.514Z,101540.47
2023-01-22T10:44:27.294Z,101535.00
2023-01-22T10:45:30.133Z,101535.88
2023-01-22T10:46:32.323Z,101542.34
2023-01-22T10:47:34.566Z,101531.47
2023-01-22T10:48:47.184Z,101540.47
2023-01-22T10:50:04.445Z,101537.72
2023-01-22T10:51:16.258Z,101537.72
2023-01-22T10:52:23.652Z,101526.00
2023-01-22T10:53:36.230Z,101534.88
2023-01-22T10:54:55.364Z,101530.44
2023-01-22T10:56:01.028Z,101533.16
2023-01-22T10:57:12.952Z,101540.31
2023-01-22T10:58:18.229Z,101539.28
2023-01-22T10:59:26.883Z,101540.16
2023-01-22T11:00:50.509Z,101536.41
2023-01-22T11:02:03.612Z,101534.53
2023-01-22T11:03:22.546Z,101534.53
2023-01-22T11:04:28.259Z,101534.53
2023-01-22T11:05:34.014Z,101535.53
2023-01-22T11:06:43.761Z,101537.25
2023-01-22T11:07:53.791Z,101538.97
2023-01-22T11:08:59.490Z,101549.66
2023-01-22T11:10:25.901Z,101539.63
2023-01-22T11:11:35.699Z,101540.50
2023-01-22T11:12:49.700Z,101539.47
2023-01-22T11:14:12.825Z,101537.59
2023-01-22T11:15:34.071Z,101534.88
2023-01-22T11:16:39.295Z,101534.88
2023-01-22T11:17:48.639Z,101537.44
2023-01-22T11:18:58.912Z,101536.59
2023-01-22T11:20:11.361Z,101540.97
2023-01-22T11:21:20.562Z,101534.53
2023-01-22T11:22:29.033Z,101536.25
2023-01-22T11:24:02.387Z,101539.81
2023-01-22T11:25:09.311Z,101530.63
2023-01-22T11:26:25.120Z,101537.94
2023-01-22T11:27:47.510Z,101528.78
2023-01-22T11:29:11.523Z,101532.16
2023-01-22T11:30:35.777Z,101534.03
2023-01-22T11:31:40.888Z,101533.03
2023-01-22T11:33:23.823Z,101533.88
2023-01-22T11:34:46.847Z,101555.28
2023-01-22T11:36:07.223Z,101537.09
2023-01-22T11:37:15.819Z,101541.69
2023-01-22T11:38:30.493Z,101542.56
2023-01-22T11:39:51.865Z,101540.50
2023-01-22T11:40:54.009Z,101539.66
2023-01-22T11:42:08.081Z,101535.91
2023-01-22T11:43:28.993Z,101540.50
2023-01-22T11:45:12.285Z,101544.94
2023-01-22T11:46:34.176Z,101543.91
2023-01-22T11:48:01.867Z,101550.19
2023-01-22T11:49:16.123Z,101540.34
2023-01-22T11:50:18.673Z,101541.19
2023-01-22T11:51:30.167Z,101544.75
2023-01-22T11:52:40.216Z,101540.19
2023-01-22T11:53:54.335Z,101540.19
2023-01-22T11:55:04.443Z,101539.31
2023-01-22T11:56:34.393Z,101533.72
2023-01-22T11:57:42.051Z,101534.56
2023-01-22T11:59:10.086Z,101527.22
2023-01-22T12:00:26.465Z,101534.38
2023-01-22T12:01:57.176Z,101537.97
2023-01-22T12:03:18.143Z,101530.81
2023-01-22T12:04:53.534Z,101530.66
2023-01-22T12:06:16.207Z,101529.81
2023-01-22T12:07:58.625Z,101527.09
2023-01-22T12:09:08.191Z,101528.75
2023-01-22T12:10:26.110Z,101533.38
2023-01-22T12:11:49.245Z,101532.53
2023-01-22T12:12:57.203Z,101527.09
2023-01-22T12:14:22.044Z,101522.47
2023-01-22T12:15:52.121Z,101525.19
2023-01-22T12:17:39.846Z,101525.19
2023-01-22T12:18:48.391Z,101519.75
2023-01-22T12:20:31.279Z,101518.75
2023-01-22T12:22:03.834Z,101517.88
2023-01-22T12:23:15.571Z,101526.91
2023-01-22T12:24:47.902Z,101529.47
2023-01-22T12:25:58.997Z,101524.00
2023-01-22T12:27:12.278Z,101529.47
2023-01-22T12:28:40.398Z,101524.00
2023-01-22T12:29:55.380Z,101528.44
2023-01-22T12:31:03.382Z,101531.81
2023-01-22T12:32:09.004Z,101533.72
2023-01-22T12:33:14.990Z,101529.09
2023-01-22T12:34:22.171Z,101520.94
2023-01-22T12:35:27.252Z,101520.94
2023-01-22T12:36:33.452Z,101522.66
2023-01-22T12:37:49.362Z,101517.19
2023-01-22T12:39:01.096Z,101527.06
2023-01-22T12:40:22.197Z,101516.19
2023-01-22T12:41:51.991Z,101526.06
2023-01-22T12:43:03.950Z,101529.63